createdAt,value
2023-05-01T00:01:48.489Z,16.12
2023-05-01T00:04:50.946Z,16.13
2023-05-01T00:07:53.484Z,16.15
2023-05-01T00:10:56.050Z,16.07
2023-05-01T00:13:58.377Z,16.12
2023-05-01T00:17:01.151Z,16.10
2023-05-01T00:20:05.406Z,15.97
2023-05-01T00:23:08.721Z,16.10
2023-05-01T00:26:11.085Z,16.08
2023-05-01T00:29:17.015Z,16.09
2023-05-01T00:32:19.739Z,16.06
2023-05-01T00:35:22.705Z,15.98
2023-05-01T00:38:25.071Z,16.06
2023-05-01T00:41:27.422Z,16.06
2023-05-01T00:44:29.771Z,16.03
2023-05-01T00:47:33.105Z,16.03
2023-05-01T00:50:35.582Z,16.04
2023-05-01T00:53:37.964Z,16.02
2023-05-01T00:56:40.342Z,15.95
2023-05-01T00:59:42.802Z,16.02
2023-05-01T01:02:46.881Z,15.94
2023-05-01T01:06:14.978Z,15.90
2023-05-01T01:09:41.392Z,16.00
2023-05-01T01:12:55.027Z,15.97
2023-05-01T01:16:05.964Z,15.93
2023-05-01T01:19:20.782Z,15.96
2023-05-01T01:22:24.417Z,15.95
2023-05-01T01:25:45.713Z,15.94
2023-05-01T01:29:04.109Z,15.94
2023-05-01T01:32:36.364Z,15.94
2023-05-01T01:35:42.524Z,15.82
2023-05-01T01:38:48.188Z,15.82
2023-05-01T01:41:52.491Z,15.90
2023-05-01T01:44:59.432Z,15.91
2023-05-01T01:48:03.470Z,15.84
2023-05-01T01:51:09.357Z,15.88
2023-05-01T01:54:13.320Z,15.87
2023-05-01T01:57:17.909Z,15.88
2023-05-01T02:00:22.976Z,15.84
2023-05-01T02:03:26.849Z,15.83
2023-05-01T02:06:31.750Z,15.80
2023-05-01T02:09:34.861Z,15.75
2023-05-01T02:12:37.780Z,15.84
2023-05-01T02:15:41.046Z,15.83
2023-05-01T02:18:43.807Z,15.73
2023-05-01T02:21:46.861Z,15.81
2023-05-01T02:24:49.698Z,15.75
2023-05-01T02:28:02.080Z,15.69
2023-05-01T02:31:04.427Z,15.79
2023-05-01T02:34:06.817Z,15.76
2023-05-01T02:37:11.626Z,15.77
2023-05-01T02:40:15.965Z,15.77
2023-05-01T02:43:20.646Z,15.79
2023-05-01T02:46:24.695Z,15.78
2023-05-01T02:49:27.709Z,15.77
2023-05-01T02:52:30.643Z,15.74
2023-05-01T02:55:50.946Z,15.72
2023-05-01T02:58:53.760Z,15.67
2023-05-01T03:01:56.152Z,15.73
2023-05-01T03:04:58.643Z,15.73
2023-05-01T03:08:01.085Z,15.70
2023-05-01T03:11:08.003Z,15.73
2023-05-01T03:14:11.319Z,15.72
2023-05-01T03:17:14.205Z,15.70
2023-05-01T03:20:16.681Z,15.71
2023-05-01T03:23:19.236Z,15.64
2023-05-01T03:26:21.615Z,15.68
2023-05-01T03:29:26.024Z,15.66
2023-05-01T03:32:29.583Z,15.69
2023-05-01T03:35:32.616Z,15.63
2023-05-01T03:38:35.043Z,15.67
2023-05-01T03:41:46.364Z,15.60
2023-05-01T03:45:04.441Z,15.67
2023-05-01T03:48:06.861Z,15.67
2023-05-01T03:51:09.460Z,15.61
2023-05-01T03:54:12.615Z,15.61
2023-05-01T03:57:29.781Z,15.66
2023-05-01T04:00:32.975Z,15.61
2023-05-01T04:03:35.639Z,15.66
2023-05-01T04:06:38.111Z,15.72
2023-05-01T04:09:41.876Z,15.83
2023-05-01T04:12:44.581Z,16.02
2023-05-01T04:15:47.083Z,16.24
2023-05-01T04:18:49.530Z,16.50
2023-05-01T04:21:52.229Z,16.70
2023-05-01T04:24:55.029Z,17.07
2023-05-01T04:27:57.818Z,17.41
2023-05-01T04:31:03.078Z,17.71
2023-05-01T04:34:05.555Z,18.09
2023-05-01T04:37:09.169Z,18.47
2023-05-01T04:40:12.226Z,18.70
2023-05-01T04:43:15.543Z,19.07
2023-05-01T04:46:18.399Z,19.46
2023-05-01T04:49:22.367Z,19.73
2023-05-01T04:52:24.849Z,20.02
2023-05-01T04:55:32.202Z,20.30
2023-05-01T04:58:42.258Z,20.46
2023-05-01T05:01:48.820Z,20.48
2023-05-01T05:04:53.888Z,20.54
2023-05-01T05:07:56.617Z,20.53
2023-05-01T05:11:01.947Z,20.59
2023-05-01T05:14:22.351Z,20.61
2023-05-01T05:17:25.765Z,20.60
2023-05-01T05:20:28.319Z,20.53
2023-05-01T05:23:31.228Z,20.50
2023-05-01T05:26:33.593Z,20.45
2023-05-01T05:29:38.398Z,20.39
2023-05-01T05:32:40.781Z,20.32
2023-05-01T05:35:43.772Z,20.24
2023-05-01T05:38:46.657Z,20.19
2023-05-01T05:41:53.983Z,20.17
2023-05-01T05:44:56.648Z,20.12
2023-05-01T05:47:59.099Z,20.13
2023-05-01T05:51:02.967Z,20.05
2023-05-01T05:54:05.345Z,20.10
2023-05-01T05:57:10.655Z,20.06
2023-05-01T06:00:19.043Z,20.09
2023-05-01T06:03:25.192Z,20.20
2023-05-01T06:06:31.511Z,20.18
2023-05-01T06:09:34.169Z,20.15
2023-05-01T06:12:37.869Z,20.16
2023-05-01T06:15:43.962Z,20.32
2023-05-01T06:18:47.363Z,20.48
2023-05-01T06:21:49.699Z,20.53
2023-05-01T06:24:52.144Z,20.73
2023-05-01T06:27:54.866Z,20.87
2023-05-01T06:30:59.196Z,21.05
2023-05-01T06:34:02.409Z,21.20
2023-05-01T06:37:17.914Z,21.25
2023-05-01T06:40:20.366Z,21.37
2023-05-01T06:43:22.963Z,21.49
2023-05-01T06:46:28.040Z,21.70
2023-05-01T06:49:30.462Z,21.82
2023-05-01T06:52:32.887Z,21.91
2023-05-01T06:55:35.923Z,22.09
2023-05-01T06:58:38.378Z,22.18
2023-05-01T07:01:40.924Z,22.25
2023-05-01T07:04:44.495Z,22.41
2023-05-01T07:07:57.975Z,22.48
2023-05-01T07:11:03.491Z,22.73
2023-05-01T07:14:06.092Z,22.83
2023-05-01T07:17:09.312Z,22.87
2023-05-01T07:20:12.717Z,23.03
2023-05-01T07:23:15.075Z,23.08
2023-05-01T07:26:17.500Z,23.16
2023-05-01T07:29:19.850Z,23.25
2023-05-01T07:32:22.255Z,23.24
2023-05-01T07:35:24.632Z,23.32
2023-05-01T07:38:27.125Z,23.34
2023-05-01T07:41:29.456Z,23.34
2023-05-01T07:44:31.802Z,23.22
2023-05-01T07:47:34.134Z,23.21
2023-05-01T07:50:36.564Z,23.17
2023-05-01T07:53:40.786Z,23.14
2023-05-01T07:56:43.139Z,23.03
2023-05-01T07:59:45.524Z,23.08
2023-05-01T08:02:48.470Z,23.06
2023-05-01T08:05:51.191Z,22.96
2023-05-01T08:08:53.522Z,22.81
2023-05-01T08:11:55.824Z,22.79
2023-05-01T08:14:58.172Z,22.67
2023-05-01T08:18:00.732Z,22.48
2023-05-01T08:21:03.609Z,22.25
2023-05-01T08:24:09.363Z,22.12
2023-05-01T08:27:11.774Z,22.04
2023-05-01T08:30:14.168Z,21.94
2023-05-01T08:33:16.624Z,21.85
2023-05-01T08:36:21.176Z,21.78
2023-05-01T08:39:23.724Z,21.66
2023-05-01T08:42:26.443Z,21.55
2023-05-01T08:45:31.150Z,21.54
2023-05-01T08:48:35.650Z,21.45
2023-05-01T08:51:38.591Z,21.30
2023-05-01T08:54:45.318Z,21.34
2023-05-01T08:57:48.621Z,21.29
2023-05-01T09:00:51.207Z,21.15
2023-05-01T09:03:53.962Z,21.13
2023-05-01T09:06:56.574Z,21.13
2023-05-01T09:09:59.485Z,21.08
2023-05-01T09:13:02.420Z,20.98
2023-05-01T09:16:05.689Z,20.97
2023-05-01T09:19:08.609Z,20.92
2023-05-01T09:22:11.269Z,20.90
2023-05-01T09:25:13.623Z,20.82
2023-05-01T09:28:16.028Z,20.76
2023-05-01T09:31:27.735Z,20.78
2023-05-01T09:34:30.136Z,20.74
2023-05-01T09:37:33.726Z,20.63
2023-05-01T09:40:36.084Z,20.60
2023-05-01T09:43:39.069Z,20.53
2023-05-01T09:46:43.978Z,20.55
2023-05-01T09:49:48.405Z,20.56
2023-05-01T09:52:52.887Z,20.53
2023-05-01T09:56:02.281Z,20.44
2023-05-01T09:59:17.940Z,20.46
2023-05-01T10:02:29.827Z,20.44
2023-05-01T10:05:44.038Z,20.41
2023-05-01T10:08:50.742Z,20.37
2023-05-01T10:11:56.182Z,20.32
2023-05-01T10:15:00.480Z,20.25
2023-05-01T10:18:04.968Z,20.25
2023-05-01T10:21:07.733Z,20.23
2023-05-01T10:24:11.228Z,20.14
2023-05-01T10:27:13.862Z,20.17
2023-05-01T10:30:17.686Z,20.15
2023-05-01T10:33:20.022Z,20.07
2023-05-01T10:36:28.737Z,20.07
2023-05-01T10:39:36.066Z,20.05
2023-05-01T10:43:17.022Z,20.03
2023-05-01T10:46:19.421Z,19.99
2023-05-01T10:49:22.153Z,19.91
2023-05-01T10:52:24.520Z,19.91
2023-05-01T10:55:36.742Z,19.89
2023-05-01T10:58:39.030Z,19.93
2023-05-01T11:01:44.976Z,19.90
2023-05-01T11:04:50.865Z,19.85
2023-05-01T11:08:33.867Z,19.85
2023-05-01T11:11:36.244Z,19.84
2023-05-01T11:14:54.348Z,19.82
2023-05-01T11:17:58.034Z,19.81
2023-05-01T11:21:02.230Z,19.75
2023-05-01T11:24:08.103Z,19.76
2023-05-01T11:27:13.702Z,19.74
2023-05-01T11:30:16.356Z,19.71
2023-05-01T11:33:23.230Z,19.68
2023-05-01T11:36:27.293Z,19.70
2023-05-01T11:39:29.690Z,19.68
2023-05-01T11:42:32.062Z,19.67
2023-05-01T11:45:36.205Z,19.61
2023-05-01T11:48:39.386Z,19.63
2023-05-01T11:51:41.747Z,19.55
2023-05-01T11:54:50.172Z,19.57
2023-05-01T11:57:53.339Z,19.54
2023-05-01T12:00:55.784Z,19.59
2023-05-01T12:03:58.483Z,19.56
2023-05-01T12:07:00.930Z,19.54
2023-05-01T12:10:04.632Z,19.57
2023-05-01T12:13:08.322Z,19.53
2023-05-01T12:16:11.600Z,19.56
2023-05-01T12:19:15.628Z,19.49
2023-05-01T12:22:18.247Z,19.52
2023-05-01T12:25:20.892Z,19.50
2023-05-01T12:28:23.230Z,19.52
2023-05-01T12:31:26.444Z,19.50
2023-05-01T12:34:33.705Z,19.40
2023-05-01T12:37:36.268Z,19.45
2023-05-01T12:40:40.062Z,19.45
2023-05-01T12:43:44.300Z,19.44
2023-05-01T12:46:54.145Z,19.42
2023-05-01T12:50:03.222Z,19.41
2023-05-01T12:53:07.218Z,19.36
2023-05-01T12:56:09.588Z,19.39
2023-05-01T12:59:26.939Z,19.36
2023-05-01T13:02:33.564Z,19.37
2023-05-01T13:05:36.062Z,19.36
2023-05-01T13:08:40.246Z,19.35
2023-05-01T13:11:42.574Z,19.29
2023-05-01T13:14:45.110Z,19.28
2023-05-01T13:17:47.768Z,19.33
2023-05-01T13:20:50.172Z,19.32
2023-05-01T13:24:00.368Z,19.30
2023-05-01T13:27:05.025Z,19.29
2023-05-01T13:30:08.207Z,19.28
2023-05-01T13:33:11.260Z,19.29
2023-05-01T13:36:25.134Z,19.27
2023-05-01T13:39:29.379Z,19.25
2023-05-01T13:42:31.791Z,19.22
2023-05-01T13:45:34.132Z,19.17
2023-05-01T13:48:36.477Z,19.19
2023-05-01T13:51:43.502Z,19.24
2023-05-01T13:54:47.631Z,19.21
2023-05-01T13:57:50.104Z,19.13
2023-05-01T14:00:52.706Z,19.20
2023-05-01T14:04:00.511Z,19.08
2023-05-01T14:07:02.988Z,19.14
2023-05-01T14:10:09.079Z,19.15
2023-05-01T14:13:11.505Z,19.20
2023-05-01T14:16:27.463Z,19.14
2023-05-01T14:19:29.872Z,19.18
2023-05-01T14:22:45.794Z,19.16
2023-05-01T14:25:49.299Z,19.09
2023-05-01T14:28:51.806Z,19.08
2023-05-01T14:31:55.559Z,19.16
2023-05-01T14:34:59.819Z,19.23
2023-05-01T14:38:13.799Z,19.38
2023-05-01T14:41:18.696Z,19.42
2023-05-01T14:44:23.609Z,19.68
2023-05-01T14:47:26.336Z,19.93
2023-05-01T14:50:28.767Z,20.20
2023-05-01T14:53:34.197Z,20.43
2023-05-01T14:56:36.568Z,20.67
2023-05-01T14:59:39.021Z,20.82
2023-05-01T15:02:41.515Z,20.92
2023-05-01T15:05:46.245Z,20.91
2023-05-01T15:08:48.692Z,21.03
2023-05-01T15:11:51.117Z,20.98
2023-05-01T15:14:53.507Z,20.97
2023-05-01T15:17:55.869Z,21.03
2023-05-01T15:20:58.275Z,21.01
2023-05-01T15:24:00.604Z,20.96
2023-05-01T15:27:03.272Z,20.94
2023-05-01T15:30:06.320Z,20.95
2023-05-01T15:33:08.730Z,20.90
2023-05-01T15:36:11.200Z,20.86
2023-05-01T15:39:13.526Z,20.86
2023-05-01T15:42:15.909Z,20.82
2023-05-01T15:45:18.295Z,20.84
2023-05-01T15:48:20.899Z,20.79
2023-05-01T15:51:23.243Z,20.75
2023-05-01T15:54:27.756Z,20.74
2023-05-01T15:57:31.297Z,20.62
2023-05-01T16:00:35.890Z,20.59
2023-05-01T16:03:40.750Z,20.63
2023-05-01T16:06:43.426Z,20.62
2023-05-01T16:09:45.883Z,20.51
2023-05-01T16:12:50.621Z,20.58
2023-05-01T16:15:53.057Z,20.53
2023-05-01T16:18:57.253Z,20.52
2023-05-01T16:22:05.960Z,20.35
2023-05-01T16:25:09.649Z,20.45
2023-05-01T16:28:12.770Z,20.40
2023-05-01T16:31:26.647Z,20.29
2023-05-01T16:34:29.738Z,20.34
2023-05-01T16:37:34.070Z,20.28
2023-05-01T16:40:37.197Z,20.26
2023-05-01T16:43:39.569Z,20.17
2023-05-01T16:46:43.585Z,20.22
2023-05-01T16:49:46.790Z,20.15
2023-05-01T16:52:50.023Z,20.16
2023-05-01T16:55:53.330Z,20.14
2023-05-01T16:58:56.406Z,20.10
2023-05-01T17:01:58.822Z,20.02
2023-05-01T17:05:02.545Z,19.99
2023-05-01T17:08:05.034Z,19.99
2023-05-01T17:11:07.565Z,20.01
2023-05-01T17:14:09.986Z,20.00
2023-05-01T17:17:12.575Z,19.96
2023-05-01T17:20:14.992Z,19.86
2023-05-01T17:23:17.378Z,19.89
2023-05-01T17:26:19.734Z,19.83
2023-05-01T17:29:22.066Z,19.88
2023-05-01T17:32:35.903Z,19.82
2023-05-01T17:35:39.538Z,19.83
2023-05-01T17:38:41.990Z,19.81
2023-05-01T17:41:44.408Z,19.77
2023-05-01T17:44:46.861Z,19.70
2023-05-01T17:47:49.279Z,19.65
2023-05-01T17:50:52.006Z,19.59
2023-05-01T17:53:54.448Z,19.65
2023-05-01T17:56:56.979Z,19.51
2023-05-01T17:59:59.857Z,19.60
2023-05-01T18:03:02.683Z,19.48
2023-05-01T18:06:05.228Z,19.54
2023-05-01T18:09:08.911Z,19.50
2023-05-01T18:12:11.411Z,19.37
2023-05-01T18:15:15.867Z,19.36
2023-05-01T18:18:22.367Z,19.33
2023-05-01T18:21:25.450Z,19.27
2023-05-01T18:24:27.809Z,19.19
2023-05-01T18:27:30.132Z,19.24
2023-05-01T18:30:33.153Z,19.18
2023-05-01T18:33:35.798Z,19.16
2023-05-01T18:36:39.582Z,19.15
2023-05-01T18:39:42.155Z,19.08
2023-05-01T18:42:44.520Z,19.12
2023-05-01T18:45:47.034Z,19.12
2023-05-01T18:48:49.565Z,19.02
2023-05-01T18:51:55.800Z,19.03
2023-05-01T18:54:58.390Z,18.96
2023-05-01T18:58:02.056Z,18.97
2023-05-01T19:01:04.614Z,18.96
2023-05-01T19:04:07.453Z,18.91
2023-05-01T19:07:10.148Z,18.89
2023-05-01T19:10:12.780Z,18.80
2023-05-01T19:13:15.330Z,18.77
2023-05-01T19:16:17.765Z,18.80
2023-05-01T19:19:20.364Z,18.77
2023-05-01T19:22:22.916Z,18.70
2023-05-01T19:25:25.574Z,18.60
2023-05-01T19:28:28.106Z,18.66
2023-05-01T19:31:30.760Z,18.61
2023-05-01T19:34:33.340Z,18.56
2023-05-01T19:37:36.482Z,18.52
2023-05-01T19:40:48.291Z,18.54
2023-05-01T19:43:51.027Z,18.43
2023-05-01T19:46:53.598Z,18.42
2023-05-01T19:49:56.089Z,18.40
2023-05-01T19:53:01.601Z,18.37
2023-05-01T19:56:03.963Z,18.40
2023-05-01T19:59:06.465Z,18.33
2023-05-01T20:02:09.028Z,18.29
2023-05-01T20:05:13.101Z,18.32
2023-05-01T20:08:15.618Z,18.27
2023-05-01T20:11:18.004Z,18.27
2023-05-01T20:14:20.398Z,18.24
2023-05-01T20:17:22.950Z,18.20
2023-05-01T20:20:25.409Z,18.09
2023-05-01T20:23:27.765Z,18.10
2023-05-01T20:26:30.151Z,18.09
2023-05-01T20:29:32.602Z,18.14
2023-05-01T20:32:35.159Z,18.10
2023-05-01T20:35:38.156Z,18.02
2023-05-01T20:38:43.104Z,18.00
2023-05-01T20:41:45.472Z,17.97
2023-05-01T20:44:47.825Z,17.91
2023-05-01T20:47:50.190Z,17.89
2023-05-01T20:50:53.817Z,17.85
2023-05-01T20:53:56.254Z,17.79
2023-05-01T20:56:58.965Z,17.75
2023-05-01T21:00:01.952Z,17.79
2023-05-01T21:03:04.970Z,17.69
2023-05-01T21:06:07.516Z,17.73
2023-05-01T21:09:13.336Z,17.71
2023-05-01T21:12:15.752Z,17.65
2023-05-01T21:15:18.166Z,17.71
2023-05-01T21:18:21.193Z,17.60
2023-05-01T21:21:25.028Z,17.64
2023-05-01T21:24:27.437Z,17.65
2023-05-01T21:27:29.789Z,17.64
2023-05-01T21:30:34.325Z,17.63
2023-05-01T21:33:37.640Z,17.59
2023-05-01T21:36:45.115Z,17.53
2023-05-01T21:39:47.504Z,17.59
2023-05-01T21:42:50.017Z,17.58
2023-05-01T21:45:52.735Z,17.45
2023-05-01T21:48:55.184Z,17.56
2023-05-01T21:52:01.581Z,17.47
2023-05-01T21:55:04.770Z,17.43
2023-05-01T21:58:07.194Z,17.52
2023-05-01T22:01:13.016Z,17.50
2023-05-01T22:04:18.256Z,17.42
2023-05-01T22:07:20.622Z,17.39
2023-05-01T22:10:22.929Z,17.45
2023-05-01T22:13:32.028Z,17.43
2023-05-01T22:16:34.601Z,17.44
2023-05-01T22:19:37.939Z,17.43
2023-05-01T22:22:41.325Z,17.33
2023-05-01T22:25:44.176Z,17.42
2023-05-01T22:28:46.577Z,17.34
2023-05-01T22:31:48.994Z,17.40
2023-05-01T22:34:51.350Z,17.38
2023-05-01T22:37:53.706Z,17.36
2023-05-01T22:40:56.051Z,17.35
2023-05-01T22:43:58.345Z,17.33
2023-05-01T22:47:00.775Z,17.34
2023-05-01T22:50:03.347Z,17.35
2023-05-01T22:53:05.846Z,17.27
2023-05-01T22:56:08.236Z,17.30
2023-05-01T22:59:10.694Z,17.32
2023-05-01T23:02:16.374Z,17.25
2023-05-01T23:05:18.776Z,17.24
2023-05-01T23:08:21.136Z,17.28
2023-05-01T23:11:31.032Z,17.24
2023-05-01T23:14:34.232Z,17.22
2023-05-01T23:17:36.667Z,17.26
2023-05-01T23:20:40.589Z,17.19
2023-05-01T23:23:43.537Z,17.23
2023-05-01T23:26:46.244Z,17.20
2023-05-01T23:29:56.556Z,17.22
2023-05-01T23:32:59.798Z,17.11
2023-05-01T23:36:02.162Z,17.22
2023-05-01T23:39:04.499Z,17.19
2023-05-01T23:42:07.120Z,17.16
2023-05-01T23:45:09.741Z,17.16
2023-05-01T23:48:12.768Z,17.12
2023-05-01T23:51:15.262Z,17.05
2023-05-01T23:54:17.597Z,17.15
2023-05-01T23:57:19.961Z,17.15
